Obelix — 7JAX — position and weather

sailwx.info

Track history (hours):
 
Tides and Currents Weather Stations Pressure Air Temp Water Temp Dewpoint Dewpoint Depression Visibility Wind Speed Wind Dir Waves Ship Positions

Obelix

Last reported at 2017-Mar-28 05:33 UTC. Time now 2017-Mar-28 06:22 UTC.
Position N 34°32' E 135°19'.

Length 74 m; draft 3.9 m.

Type: Tanker. MMSI: 432528000.

Date/timePositionNaut miles runAvg speedWind from/ knotsBaromVisibWave heightAir tempDewpointWater temp
2017-Mar-28 05:33N 34°32' E 135°19'0 0.0
2017-Mar-28 04:33N 34°32' E 135°19'0 0.0
2017-Mar-28 03:27N 34°32' E 135°19'0 0.0
2017-Mar-28 01:33N 34°32' E 135°19'6 6.2
2017-Mar-28 00:33N 34°31' E 135°12'1111.1
2017-Mar-27 23:34N 34°37' E 135°00'12011.5
2017-Mar-27 13:08N 33°57' E 132°43'813.6
2017-Mar-27 12:33N 33°52' E 132°36'12 0.6
2017-Mar-26 18:20N 33°46' E 132°24'912.3
2017-Mar-26 17:33N 33°51' E 132°34'1313.3
2017-Mar-26 16:33N 34°01' E 132°45'11811.7
2017-Mar-26 06:27N 34°37' E 135°01'9 9.9
2017-Mar-26 05:34N 34°35' E 135°11'1111.2
2017-Mar-26 04:34N 34°33' E 135°25'1 0.2
2017-Mar-25 23:08N 34°32' E 135°25'0 0.0
2017-Mar-25 22:33N 34°32' E 135°25'4 4.4
2017-Mar-25 21:33N 34°32' E 135°20'0 0.5
2017-Mar-25 20:29N 34°32' E 135°19'0 0.0
2017-Mar-25 19:29N 34°32' E 135°19'0 0.0
2017-Mar-25 18:29N 34°32' E 135°19'0 0.0
2017-Mar-25 17:29N 34°32' E 135°19'0 0.0
2017-Mar-25 16:29N 34°32' E 135°19'0 0.0
2017-Mar-25 15:29N 34°32' E 135°19'0 0.0
2017-Mar-25 14:05N 34°32' E 135°19'0 0.0
2017-Mar-25 13:29N 34°32' E 135°19'0 0.0
2017-Mar-25 12:05N 34°32' E 135°19'0 0.0
2017-Mar-25 11:29N 34°32' E 135°19'0 0.0
2017-Mar-25 10:29N 34°32' E 135°19'0 0.0
2017-Mar-25 09:29N 34°32' E 135°19'0 0.0
2017-Mar-25 08:29N 34°32' E 135°19'4 3.9
2017-Mar-25 07:33N 34°34' E 135°16'7 6.2
2017-Mar-25 06:26N 34°40' E 135°11'0 0.0
2017-Mar-25 05:26N 34°40' E 135°11'0 0.0
2017-Mar-25 04:32N 34°40' E 135°11'0 0.0
2017-Mar-25 03:32N 34°40' E 135°11'0 0.0
2017-Mar-25 02:32N 34°40' E 135°11'0 0.0
2017-Mar-25 01:26N 34°40' E 135°11'0 0.0
2017-Mar-25 00:26N 34°40' E 135°11'0 0.0
2017-Mar-24 23:32N 34°40' E 135°11'0 0.0
2017-Mar-24 22:26N 34°40' E 135°11'0 0.0
2017-Mar-24 21:26N 34°40' E 135°11'0 0.0
2017-Mar-24 20:32N 34°40' E 135°11'0 0.0
2017-Mar-24 19:26N 34°40' E 135°11'0 0.0
2017-Mar-24 18:32N 34°40' E 135°11'0 0.0
2017-Mar-24 17:32N 34°40' E 135°11'0 0.0
2017-Mar-24 16:32N 34°40' E 135°11'0 0.0
2017-Mar-24 15:26N 34°40' E 135°11'0 0.0
2017-Mar-24 14:26N 34°40' E 135°11'0 0.0
2017-Mar-24 13:26N 34°40' E 135°11'0 0.0
2017-Mar-24 12:32N 34°40' E 135°11'0 0.0
2017-Mar-24 11:32N 34°40' E 135°11'0 0.0
2017-Mar-24 10:32N 34°40' E 135°11'0 0.0
2017-Mar-24 09:26N 34°40' E 135°11'0 0.0
2017-Mar-24 08:32N 34°40' E 135°11'0 0.0
2017-Mar-24 07:32N 34°40' E 135°11'0 0.0
2017-Mar-24 06:32N 34°40' E 135°11'0 0.0
2017-Mar-24 05:32N 34°40' E 135°11'0 0.0
2017-Mar-24 04:32N 34°40' E 135°11'0 0.0
2017-Mar-24 03:32N 34°40' E 135°11'0 0.0
2017-Mar-24 02:26N 34°40' E 135°11'0 0.0
2017-Mar-24 01:32N 34°40' E 135°11'0 0.0
2017-Mar-24 00:20N 34°40' E 135°11'0 0.2
2017-Mar-23 23:33N 34°40' E 135°11'3 3.2
2017-Mar-23 22:30N 34°37' E 135°09'0 0.0
2017-Mar-23 21:30N 34°37' E 135°09'0 0.0
2017-Mar-23 20:30N 34°37' E 135°09'0 0.0
2017-Mar-23 19:24N 34°37' E 135°09'0 0.0
2017-Mar-23 18:18N 34°37' E 135°09'0 0.0
2017-Mar-23 17:30N 34°37' E 135°09'0 0.0
2017-Mar-23 16:24N 34°37' E 135°09'0 0.0
2017-Mar-23 15:30N 34°37' E 135°09'0 0.1
2017-Mar-23 14:30N 34°37' E 135°09'0 0.1
2017-Mar-23 13:30N 34°37' E 135°09'0 0.0
2017-Mar-23 12:30N 34°37' E 135°09'0 0.0
2017-Mar-23 11:30N 34°37' E 135°09'0 0.0
2017-Mar-23 10:30N 34°37' E 135°09'0 0.0
2017-Mar-23 09:24N 34°37' E 135°09'0 0.0
2017-Mar-23 08:18N 34°37' E 135°09'0 0.1
2017-Mar-23 07:30N 34°37' E 135°09'9 9.0
2017-Mar-23 06:31N 34°37' E 134°59'1 0.0
2017-Mar-22 07:07N 34°37' E 134°57'711.5
2017-Mar-22 06:32N 34°36' E 135°05'1111.6
2017-Mar-22 05:33N 34°34' E 135°19'5 5.0
2017-Mar-22 04:28N 34°33' E 135°25'0 0.0
2017-Mar-22 03:04N 34°33' E 135°25'0 0.0
2017-Mar-22 01:28N 34°33' E 135°25'0 0.0
2017-Mar-22 00:33N 34°33' E 135°25'5 5.1
2017-Mar-21 23:31N 34°32' E 135°19'0 0.1
2017-Mar-21 22:32N 34°31' E 135°19'0 0.0
2017-Mar-21 21:32N 34°31' E 135°19'0 0.0
2017-Mar-21 20:26N 34°31' E 135°19'0 0.1
2017-Mar-21 19:32N 34°31' E 135°19'0 0.0
2017-Mar-21 18:32N 34°31' E 135°19'0 0.0
2017-Mar-21 17:26N 34°31' E 135°19'0 0.0
2017-Mar-21 16:32N 34°31' E 135°19'0 0.0
2017-Mar-21 15:32N 34°31' E 135°19'0 0.0
2017-Mar-21 14:32N 34°31' E 135°19'0 0.0
2017-Mar-21 13:20N 34°31' E 135°19'0 0.1
2017-Mar-21 12:32N 34°31' E 135°19'0 0.0
2017-Mar-21 11:20N 34°31' E 135°19'1 1.6
2017-Mar-21 10:28N 34°31' E 135°18'1112.0
2017-Mar-21 09:33N 34°35' E 135°05'1512.5
2017-Mar-21 08:24N 34°40' E 134°49'2 0.2
2017-Mar-21 01:16N 34°41' E 134°47'  
2017-Mar-18 14:33N 34°05' E 134°59'1312.0
2017-Mar-18 13:26N 34°18' E 134°58'1112.0
2017-Mar-18 12:31N 34°29' E 135°01'8 8.3
2017-Mar-18 11:32N 34°37' E 134°58'  
Track history (hours):
 
Tides and Currents Weather Stations Pressure Air Temp Water Temp Dewpoint Dewpoint Depression Visibility Wind Speed Wind Dir Waves Ship Positions

Obelix

Last reported at 2017-Mar-28 05:33 UTC. Time now 2017-Mar-28 06:22 UTC.
Position N 34°32' E 135°19'.

Length 74 m; draft 3.9 m.

Type: Tanker. MMSI: 432528000.

Date/timePositionNaut miles runAvg speedWind from/ knotsBaromVisibWave heightAir tempDewpointWater temp
2017-Mar-28 05:33N 34°32' E 135°19'0 0.0
2017-Mar-28 04:33N 34°32' E 135°19'0 0.0
2017-Mar-28 03:27N 34°32' E 135°19'0 0.0
2017-Mar-28 01:33N 34°32' E 135°19'6 6.2
2017-Mar-28 00:33N 34°31' E 135°12'1111.1
2017-Mar-27 23:34N 34°37' E 135°00'12011.5
2017-Mar-27 13:08N 33°57' E 132°43'813.6
2017-Mar-27 12:33N 33°52' E 132°36'12 0.6
2017-Mar-26 18:20N 33°46' E 132°24'912.3
2017-Mar-26 17:33N 33°51' E 132°34'1313.3
2017-Mar-26 16:33N 34°01' E 132°45'11811.7
2017-Mar-26 06:27N 34°37' E 135°01'9 9.9
2017-Mar-26 05:34N 34°35' E 135°11'1111.2
2017-Mar-26 04:34N 34°33' E 135°25'1 0.2
2017-Mar-25 23:08N 34°32' E 135°25'0 0.0
2017-Mar-25 22:33N 34°32' E 135°25'4 4.4
2017-Mar-25 21:33N 34°32' E 135°20'0 0.5
2017-Mar-25 20:29N 34°32' E 135°19'0 0.0
2017-Mar-25 19:29N 34°32' E 135°19'0 0.0
2017-Mar-25 18:29N 34°32' E 135°19'0 0.0
2017-Mar-25 17:29N 34°32' E 135°19'0 0.0
2017-Mar-25 16:29N 34°32' E 135°19'0 0.0
2017-Mar-25 15:29N 34°32' E 135°19'0 0.0
2017-Mar-25 14:05N 34°32' E 135°19'0 0.0
2017-Mar-25 13:29N 34°32' E 135°19'0 0.0
2017-Mar-25 12:05N 34°32' E 135°19'0 0.0
2017-Mar-25 11:29N 34°32' E 135°19'0 0.0
2017-Mar-25 10:29N 34°32' E 135°19'0 0.0
2017-Mar-25 09:29N 34°32' E 135°19'0 0.0
2017-Mar-25 08:29N 34°32' E 135°19'4 3.9
2017-Mar-25 07:33N 34°34' E 135°16'7 6.2
2017-Mar-25 06:26N 34°40' E 135°11'0 0.0
2017-Mar-25 05:26N 34°40' E 135°11'0 0.0
2017-Mar-25 04:32N 34°40' E 135°11'0 0.0
2017-Mar-25 03:32N 34°40' E 135°11'0 0.0
2017-Mar-25 02:32N 34°40' E 135°11'0 0.0
2017-Mar-25 01:26N 34°40' E 135°11'0 0.0
2017-Mar-25 00:26N 34°40' E 135°11'0 0.0
2017-Mar-24 23:32N 34°40' E 135°11'0 0.0
2017-Mar-24 22:26N 34°40' E 135°11'0 0.0
2017-Mar-24 21:26N 34°40' E 135°11'0 0.0
2017-Mar-24 20:32N 34°40' E 135°11'0 0.0
2017-Mar-24 19:26N 34°40' E 135°11'0 0.0
2017-Mar-24 18:32N 34°40' E 135°11'0 0.0
2017-Mar-24 17:32N 34°40' E 135°11'0 0.0
2017-Mar-24 16:32N 34°40' E 135°11'0 0.0
2017-Mar-24 15:26N 34°40' E 135°11'0 0.0
2017-Mar-24 14:26N 34°40' E 135°11'0 0.0
2017-Mar-24 13:26N 34°40' E 135°11'0 0.0
2017-Mar-24 12:32N 34°40' E 135°11'0 0.0
2017-Mar-24 11:32N 34°40' E 135°11'0 0.0
2017-Mar-24 10:32N 34°40' E 135°11'0 0.0
2017-Mar-24 09:26N 34°40' E 135°11'0 0.0
2017-Mar-24 08:32N 34°40' E 135°11'0 0.0
2017-Mar-24 07:32N 34°40' E 135°11'0 0.0
2017-Mar-24 06:32N 34°40' E 135°11'0 0.0
2017-Mar-24 05:32N 34°40' E 135°11'0 0.0
2017-Mar-24 04:32N 34°40' E 135°11'0 0.0
2017-Mar-24 03:32N 34°40' E 135°11'0 0.0
2017-Mar-24 02:26N 34°40' E 135°11'0 0.0
2017-Mar-24 01:32N 34°40' E 135°11'0 0.0
2017-Mar-24 00:20N 34°40' E 135°11'0 0.2
2017-Mar-23 23:33N 34°40' E 135°11'3 3.2
2017-Mar-23 22:30N 34°37' E 135°09'0 0.0
2017-Mar-23 21:30N 34°37' E 135°09'0 0.0
2017-Mar-23 20:30N 34°37' E 135°09'0 0.0
2017-Mar-23 19:24N 34°37' E 135°09'0 0.0
2017-Mar-23 18:18N 34°37' E 135°09'0 0.0
2017-Mar-23 17:30N 34°37' E 135°09'0 0.0
2017-Mar-23 16:24N 34°37' E 135°09'0 0.0
2017-Mar-23 15:30N 34°37' E 135°09'0 0.1
2017-Mar-23 14:30N 34°37' E 135°09'0 0.1
2017-Mar-23 13:30N 34°37' E 135°09'0 0.0
2017-Mar-23 12:30N 34°37' E 135°09'0 0.0
2017-Mar-23 11:30N 34°37' E 135°09'0 0.0
2017-Mar-23 10:30N 34°37' E 135°09'0 0.0
2017-Mar-23 09:24N 34°37' E 135°09'0 0.0
2017-Mar-23 08:18N 34°37' E 135°09'0 0.1
2017-Mar-23 07:30N 34°37' E 135°09'9 9.0
2017-Mar-23 06:31N 34°37' E 134°59'1 0.0
2017-Mar-22 07:07N 34°37' E 134°57'711.5
2017-Mar-22 06:32N 34°36' E 135°05'1111.6
2017-Mar-22 05:33N 34°34' E 135°19'5 5.0
2017-Mar-22 04:28N 34°33' E 135°25'0 0.0
2017-Mar-22 03:04N 34°33' E 135°25'0 0.0
2017-Mar-22 01:28N 34°33' E 135°25'0 0.0
2017-Mar-22 00:33N 34°33' E 135°25'5 5.1
2017-Mar-21 23:31N 34°32' E 135°19'0 0.1
2017-Mar-21 22:32N 34°31' E 135°19'0 0.0
2017-Mar-21 21:32N 34°31' E 135°19'0 0.0
2017-Mar-21 20:26N 34°31' E 135°19'0 0.1
2017-Mar-21 19:32N 34°31' E 135°19'0 0.0
2017-Mar-21 18:32N 34°31' E 135°19'0 0.0
2017-Mar-21 17:26N 34°31' E 135°19'0 0.0
2017-Mar-21 16:32N 34°31' E 135°19'0 0.0
2017-Mar-21 15:32N 34°31' E 135°19'0 0.0
2017-Mar-21 14:32N 34°31' E 135°19'0 0.0
2017-Mar-21 13:20N 34°31' E 135°19'0 0.1
2017-Mar-21 12:32N 34°31' E 135°19'0 0.0
2017-Mar-21 11:20N 34°31' E 135°19'1 1.6
2017-Mar-21 10:28N 34°31' E 135°18'1112.0
2017-Mar-21 09:33N 34°35' E 135°05'1512.5
2017-Mar-21 08:24N 34°40' E 134°49'2 0.2
2017-Mar-21 01:16N 34°41' E 134°47'  
2017-Mar-18 14:33N 34°05' E 134°59'1312.0
2017-Mar-18 13:26N 34°18' E 134°58'1112.0
2017-Mar-18 12:31N 34°29' E 135°01'8 8.3
2017-Mar-18 11:32N 34°37' E 134°58'  

Dump ship's entire track history